Terminal Aerodrome Forecast
Issued by NWS Tampa Bay Area, FL

Home | Current Version | Previous Version | Text Only | Print | Product List | Glossary On
Versions: 1 2 3 4 5 6 7 8 9 10 11 12
000
FTUS42 KTBW 131725
TAFSRQ
TAF
KSRQ 131725Z 1318/1418 01007KT P6SM SKC
     FM132100 30006KT P6SM SKC
     FM140600 23004KT P6SM SKC
     FM141200 23007KT P6SM FEW025 SCT050=

USA.gov is the U.S. government's official web portal to all federal, state and local government web resources and services.